createdAt,value
2017-07-04T00:02:18.091Z,82.90
2017-07-04T00:04:45.854Z,83.30
2017-07-04T00:07:13.623Z,83.10
2017-07-04T00:09:41.436Z,83.10
2017-07-04T00:12:10.104Z,82.30
2017-07-04T00:14:38.503Z,80.80
2017-07-04T00:17:06.763Z,81.20
2017-07-04T00:19:36.071Z,79.00
2017-07-04T00:22:05.380Z,79.80
2017-07-04T00:24:34.151Z,79.80
2017-07-04T00:27:03.700Z,79.50
2017-07-04T00:29:33.243Z,79.40
2017-07-04T00:32:00.993Z,79.60
2017-07-04T00:34:28.778Z,79.90
2017-07-04T00:36:57.379Z,81.60
2017-07-04T00:39:25.452Z,81.50
2017-07-04T00:41:53.218Z,82.10
2017-07-04T00:44:21.742Z,82.20
2017-07-04T00:46:49.542Z,81.60
2017-07-04T00:49:17.312Z,82.30
2017-07-04T00:51:45.119Z,82.30
2017-07-04T00:54:12.871Z,82.70
2017-07-04T00:56:40.618Z,83.40
2017-07-04T00:59:08.392Z,83.10
2017-07-04T01:01:36.147Z,82.30
2017-07-04T01:04:04.014Z,83.20
2017-07-04T01:06:31.782Z,82.80
2017-07-04T01:08:59.532Z,82.30
2017-07-04T01:11:27.318Z,82.60
2017-07-04T01:13:55.091Z,82.50
2017-07-04T01:16:22.914Z,82.60
2017-07-04T01:18:50.658Z,83.20
2017-07-04T01:21:18.403Z,84.00
2017-07-04T01:23:46.193Z,84.20
2017-07-04T01:26:13.941Z,84.60
2017-07-04T01:28:41.760Z,86.00
2017-07-04T01:31:09.998Z,85.10
2017-07-04T01:33:37.766Z,85.30
2017-07-04T01:36:05.553Z,85.40
2017-07-04T01:38:33.325Z,86.10
2017-07-04T01:41:01.149Z,86.60
2017-07-04T01:43:28.956Z,87.30
2017-07-04T01:45:57.487Z,87.40
2017-07-04T01:48:25.280Z,87.40
2017-07-04T01:50:53.023Z,88.70
2017-07-04T01:53:20.830Z,90.50
2017-07-04T01:55:48.585Z,90.20
2017-07-04T01:58:17.110Z,89.60
2017-07-04T02:00:44.910Z,89.60
2017-07-04T02:03:12.677Z,88.90
2017-07-04T02:05:41.249Z,90.10
2017-07-04T02:08:09.010Z,90.10
2017-07-04T02:10:36.773Z,89.50
2017-07-04T02:13:04.558Z,90.20
2017-07-04T02:15:33.507Z,90.10
2017-07-04T02:18:03.009Z,90.40
2017-07-04T02:20:30.802Z,90.40
2017-07-04T02:22:58.573Z,88.90
2017-07-04T02:25:27.129Z,89.90
2017-07-04T02:27:54.880Z,90.00
2017-07-04T02:30:22.698Z,90.00
2017-07-04T02:32:50.453Z,88.60
2017-07-04T02:35:18.255Z,87.60
2017-07-04T02:37:46.066Z,88.00
2017-07-04T02:40:14.582Z,90.20
2017-07-04T02:42:42.411Z,90.20
2017-07-04T02:45:10.188Z,89.80
2017-07-04T02:47:37.944Z,89.20
2017-07-04T02:50:05.733Z,89.40
2017-07-04T02:52:33.541Z,90.00
2017-07-04T02:55:01.363Z,90.10
2017-07-04T02:57:29.100Z,90.20
2017-07-04T02:59:56.853Z,90.20
2017-07-04T03:02:24.668Z,89.70
2017-07-04T03:04:52.416Z,89.00
2017-07-04T03:07:20.237Z,90.30
2017-07-04T03:09:47.985Z,90.30
2017-07-04T03:12:16.509Z,88.50
2017-07-04T03:14:44.295Z,88.50
2017-07-04T03:17:12.043Z,89.40
2017-07-04T03:19:40.622Z,89.50
2017-07-04T03:22:08.372Z,89.50
2017-07-04T03:24:36.116Z,89.90
2017-07-04T03:27:03.899Z,90.20
2017-07-04T03:29:31.628Z,90.10
2017-07-04T03:31:59.463Z,90.20
2017-07-04T03:34:28.401Z,90.30
2017-07-04T03:36:56.157Z,90.20
2017-07-04T03:39:23.956Z,90.20
2017-07-04T03:41:51.714Z,90.10
2017-07-04T03:44:19.536Z,90.00
2017-07-04T03:46:47.290Z,90.30
2017-07-04T03:49:15.111Z,89.80
2017-07-04T03:51:42.893Z,90.30
2017-07-04T03:54:11.407Z,90.30
2017-07-04T03:56:39.213Z,90.20
2017-07-04T03:59:06.966Z,89.40
2017-07-04T04:01:34.703Z,89.30
2017-07-04T04:04:02.476Z,88.50
2017-07-04T04:06:30.236Z,87.90
2017-07-04T04:08:58.048Z,88.30
2017-07-04T04:11:26.612Z,87.30
2017-07-04T04:13:54.384Z,87.40
2017-07-04T04:16:22.926Z,87.20
2017-07-04T04:18:50.673Z,87.30
2017-07-04T04:21:18.868Z,87.20
2017-07-04T04:23:46.632Z,87.30
2017-07-04T04:26:14.376Z,86.50
2017-07-04T04:28:42.184Z,86.60
2017-07-04T04:31:10.702Z,87.10
2017-07-04T04:33:38.521Z,87.10
2017-07-04T04:36:07.051Z,88.10
2017-07-04T04:38:34.798Z,88.10
2017-07-04T04:41:02.573Z,88.20
2017-07-04T04:43:30.332Z,86.60
2017-07-04T04:45:58.288Z,86.60
2017-07-04T04:48:26.038Z,86.20
2017-07-04T04:50:53.795Z,84.90
2017-07-04T04:53:21.600Z,85.40
2017-07-04T04:55:49.370Z,83.90
2017-07-04T04:58:17.174Z,82.50
2017-07-04T05:00:44.955Z,82.30
2017-07-04T05:03:12.770Z,81.30
2017-07-04T05:05:40.530Z,80.90
2017-07-04T05:08:09.053Z,80.00
2017-07-04T05:10:36.849Z,79.80
2017-07-04T05:13:04.613Z,80.60
2017-07-04T05:15:32.606Z,79.80
2017-07-04T05:18:00.367Z,79.80
2017-07-04T05:20:28.117Z,79.10
2017-07-04T05:22:55.913Z,78.20
2017-07-04T05:25:23.682Z,78.50
2017-07-04T05:27:51.503Z,77.20
2017-07-04T05:30:19.275Z,77.30
2017-07-04T05:32:47.013Z,76.40
2017-07-04T05:35:14.804Z,75.20
2017-07-04T05:37:43.337Z,75.30
2017-07-04T05:40:11.142Z,75.30
2017-07-04T05:42:39.656Z,75.50
2017-07-04T05:45:07.408Z,75.50
2017-07-04T05:47:35.204Z,77.40
2017-07-04T05:50:02.963Z,77.50
2017-07-04T05:52:30.783Z,77.50
2017-07-04T05:54:58.537Z,77.30
2017-07-04T05:57:27.069Z,79.30
2017-07-04T05:59:54.889Z,79.30
2017-07-04T06:02:22.651Z,81.00
2017-07-04T06:04:51.229Z,82.00
2017-07-04T06:07:19.750Z,81.80
2017-07-04T06:09:47.574Z,81.60
2017-07-04T06:12:15.389Z,81.30
2017-07-04T06:14:43.158Z,84.70
2017-07-04T06:17:10.995Z,86.30
2017-07-04T06:19:38.746Z,83.90
2017-07-04T06:22:06.493Z,84.90
2017-07-04T06:24:34.282Z,82.40
2017-07-04T06:27:02.030Z,80.10
2017-07-04T06:29:29.842Z,80.00
2017-07-04T06:31:57.596Z,77.00
2017-07-04T06:34:25.353Z,76.40
2017-07-04T06:36:53.133Z,74.20
2017-07-04T06:39:20.894Z,70.80
2017-07-04T06:41:48.746Z,67.60
2017-07-04T06:44:16.498Z,66.00
2017-07-04T06:46:44.249Z,63.00
2017-07-04T06:49:12.046Z,59.20
2017-07-04T06:51:40.576Z,50.20
2017-07-04T06:54:08.382Z,50.10
2017-07-04T06:56:36.920Z,47.00
2017-07-04T06:59:04.673Z,46.90
2017-07-04T07:01:32.504Z,42.80
2017-07-04T07:04:01.011Z,33.20
2017-07-04T07:06:28.828Z,33.20
2017-07-04T07:08:56.561Z,31.00
2017-07-04T07:11:24.298Z,31.70
2017-07-04T07:13:52.095Z,29.10
2017-07-04T07:16:19.874Z,28.10
2017-07-04T07:18:48.038Z,27.00
2017-07-04T07:21:15.825Z,25.70
2017-07-04T07:23:48.254Z,24.80
2017-07-04T07:26:16.092Z,25.50
2017-07-04T07:28:43.862Z,24.50
2017-07-04T07:31:12.179Z,23.20
2017-07-04T07:33:40.703Z,23.60
2017-07-04T07:38:40.565Z,24.80
2017-07-04T07:41:08.323Z,24.60
2017-07-04T07:43:36.399Z,23.20
2017-07-04T07:46:04.309Z,21.70
2017-07-04T07:51:04.260Z,20.30
2017-07-04T07:53:32.835Z,22.80
2017-07-04T07:56:00.664Z,22.70
2017-07-04T08:08:37.259Z,23.80
2017-07-04T08:11:05.031Z,24.60
2017-07-04T08:13:33.598Z,29.40
2017-07-04T08:16:01.357Z,29.30
2017-07-04T08:18:29.241Z,31.70
2017-07-04T08:20:57.757Z,24.70
2017-07-04T08:23:25.551Z,24.70
2017-07-04T08:25:54.149Z,24.90
2017-07-04T08:28:21.960Z,24.30
2017-07-04T08:30:49.852Z,24.00
2017-07-04T08:33:17.667Z,25.10
2017-07-04T08:35:45.436Z,27.10
2017-07-04T08:38:13.241Z,28.20
2017-07-04T08:40:41.024Z,25.40
2017-07-04T08:43:08.870Z,25.00
2017-07-04T08:45:36.636Z,27.30
2017-07-04T08:48:04.387Z,30.30
2017-07-04T08:50:32.224Z,30.00
2017-07-04T08:52:59.985Z,28.80
2017-07-04T08:55:27.792Z,29.50
2017-07-04T08:57:55.540Z,27.20
2017-07-04T09:00:23.290Z,25.60
2017-07-04T09:02:51.105Z,26.60
2017-07-04T09:05:18.889Z,29.00
2017-07-04T09:07:46.708Z,30.30
2017-07-04T09:10:14.459Z,34.10
2017-07-04T09:12:42.222Z,36.50
2017-07-04T09:15:10.020Z,36.00
2017-07-04T09:17:37.772Z,32.50
2017-07-04T09:20:05.587Z,28.80
2017-07-04T09:22:35.310Z,25.80
2017-07-04T09:25:03.582Z,23.50
2017-07-04T09:27:31.406Z,25.40
2017-07-04T09:29:59.181Z,28.50
2017-07-04T09:32:27.015Z,32.00
2017-07-04T09:34:54.824Z,32.00
2017-07-04T09:37:22.621Z,30.50
2017-07-04T09:39:50.423Z,29.70
2017-07-04T09:42:18.207Z,31.20
2017-07-04T09:44:46.058Z,33.30
2017-07-04T09:47:13.837Z,34.70
2017-07-04T09:49:41.625Z,36.10
2017-07-04T09:52:10.187Z,37.30
2017-07-04T09:54:37.949Z,37.40
2017-07-04T09:57:05.770Z,37.80
2017-07-04T09:59:33.545Z,36.90
2017-07-04T10:02:01.634Z,37.20
2017-07-04T10:04:29.421Z,37.80
2017-07-04T10:06:57.963Z,38.00
2017-07-04T10:09:25.848Z,37.90
2017-07-04T10:11:53.617Z,38.00
2017-07-04T10:14:21.394Z,38.00
2017-07-04T10:16:49.192Z,39.60
2017-07-04T10:19:16.963Z,39.40
2017-07-04T10:21:44.781Z,40.30
2017-07-04T10:24:13.317Z,37.00
2017-07-04T10:26:41.079Z,36.90
2017-07-04T10:29:08.870Z,36.60
2017-07-04T10:31:36.627Z,36.70
2017-07-04T10:34:04.451Z,36.90
2017-07-04T10:36:32.220Z,36.70
2017-07-04T10:38:59.989Z,36.90
2017-07-04T10:41:27.779Z,37.70
2017-07-04T10:43:55.528Z,36.40
2017-07-04T10:46:23.366Z,34.30
2017-07-04T10:48:51.132Z,35.70
2017-07-04T10:51:18.898Z,35.10
2017-07-04T10:53:46.690Z,32.40
2017-07-04T10:56:14.453Z,30.60
2017-07-04T10:58:42.275Z,31.00
2017-07-04T11:01:10.034Z,30.40
2017-07-04T11:03:37.810Z,31.30
2017-07-04T11:06:05.601Z,33.10
2017-07-04T11:08:34.144Z,33.00
2017-07-04T11:11:01.954Z,33.00
2017-07-04T11:13:30.488Z,33.00
2017-07-04T11:15:58.256Z,32.90
2017-07-04T11:18:26.045Z,32.90
2017-07-04T11:20:53.788Z,31.90
2017-07-04T11:23:21.607Z,33.40
2017-07-04T11:25:49.372Z,33.80
2017-07-04T11:28:17.159Z,32.10
2017-07-04T11:30:44.964Z,30.90
2017-07-04T11:33:13.498Z,33.20
2017-07-04T11:35:41.325Z,33.10
2017-07-04T11:38:09.073Z,33.20
2017-07-04T11:40:36.816Z,33.50
2017-07-04T11:43:04.620Z,33.20
2017-07-04T11:45:32.383Z,34.60
2017-07-04T11:48:00.190Z,34.90
2017-07-04T11:50:27.939Z,34.70
2017-07-04T11:52:55.703Z,34.20
2017-07-04T11:55:23.501Z,32.10
2017-07-04T11:57:52.025Z,32.50
2017-07-04T12:00:19.850Z,32.40
2017-07-04T12:02:48.379Z,33.70
2017-07-04T12:05:16.132Z,33.60
2017-07-04T12:07:43.905Z,32.90
2017-07-04T12:10:11.663Z,33.70
2017-07-04T12:12:39.473Z,33.80
2017-07-04T12:15:07.231Z,31.00
2017-07-04T12:17:35.041Z,30.00
2017-07-04T12:20:02.816Z,29.40
2017-07-04T12:22:30.575Z,29.40
2017-07-04T12:24:58.425Z,30.20
2017-07-04T12:27:26.206Z,29.20
2017-07-04T12:29:53.977Z,29.10
2017-07-04T12:32:21.774Z,28.80
2017-07-04T12:34:50.314Z,30.70
2017-07-04T12:37:18.120Z,30.70
2017-07-04T12:39:45.877Z,30.30
2017-07-04T12:42:13.649Z,29.90
2017-07-04T12:44:41.451Z,30.60
2017-07-04T12:47:09.201Z,30.20
2017-07-04T12:49:37.011Z,29.80
2017-07-04T12:52:04.760Z,29.50
2017-07-04T12:54:32.533Z,29.50
2017-07-04T12:57:01.080Z,29.50
2017-07-04T12:59:28.836Z,29.30
2017-07-04T13:01:56.669Z,28.10
2017-07-04T13:04:24.430Z,28.10
2017-07-04T13:06:52.223Z,27.40
2017-07-04T13:09:20.006Z,26.60
2017-07-04T13:11:47.762Z,27.10
2017-07-04T13:14:15.562Z,27.40
2017-07-04T13:16:43.317Z,26.70
2017-07-04T13:19:11.849Z,28.60
2017-07-04T13:21:39.663Z,28.60
2017-07-04T13:24:08.176Z,29.60
2017-07-04T13:26:35.978Z,29.60
2017-07-04T13:29:03.748Z,27.90
2017-07-04T13:31:31.501Z,27.90
2017-07-04T13:33:59.296Z,27.10
2017-07-04T13:36:27.064Z,26.60
2017-07-04T13:38:54.885Z,27.40
2017-07-04T13:41:22.634Z,26.60
2017-07-04T13:43:50.383Z,26.70
2017-07-04T13:46:18.168Z,26.70
2017-07-04T13:48:45.928Z,25.50
2017-07-04T13:51:13.739Z,26.20
2017-07-04T13:53:41.498Z,26.80
2017-07-04T13:56:09.281Z,26.40
2017-07-04T13:58:37.076Z,26.40
2017-07-04T14:01:04.858Z,27.30
2017-07-04T14:03:33.441Z,26.50
2017-07-04T14:06:01.969Z,28.00
2017-07-04T14:08:29.728Z,28.00
2017-07-04T14:10:57.527Z,27.60
2017-07-04T14:13:25.309Z,28.00
2017-07-04T14:15:54.246Z,26.90
2017-07-04T14:18:22.508Z,26.40
2017-07-04T14:20:50.266Z,26.70
2017-07-04T14:23:18.031Z,27.20
2017-07-04T14:25:45.807Z,26.10
2017-07-04T14:28:13.622Z,26.30
2017-07-04T14:30:42.167Z,26.00
2017-07-04T14:33:09.930Z,26.00
2017-07-04T14:35:37.726Z,27.50
2017-07-04T14:38:07.048Z,27.20
2017-07-04T14:40:34.900Z,27.30
2017-07-04T14:43:02.657Z,26.00
2017-07-04T14:45:30.493Z,26.10
2017-07-04T14:47:59.575Z,25.70
2017-07-04T14:50:28.124Z,25.60
2017-07-04T14:52:55.941Z,25.60
2017-07-04T14:55:24.477Z,25.70
2017-07-04T14:57:52.338Z,25.70
2017-07-04T15:00:20.172Z,25.90
2017-07-04T15:02:48.392Z,25.10
2017-07-04T15:05:16.163Z,25.70
2017-07-04T15:07:43.923Z,25.80
2017-07-04T15:10:11.730Z,25.80
2017-07-04T15:12:39.477Z,25.90
2017-07-04T15:15:07.251Z,25.90
2017-07-04T15:17:35.022Z,26.10
2017-07-04T15:20:02.785Z,26.20
2017-07-04T15:22:30.683Z,26.00
2017-07-04T15:24:58.442Z,25.70
2017-07-04T15:27:26.199Z,25.80
2017-07-04T15:29:53.986Z,25.20
2017-07-04T15:32:21.777Z,25.80
2017-07-04T15:34:49.595Z,26.60
2017-07-04T15:37:17.350Z,26.10
2017-07-04T15:39:45.118Z,25.60
2017-07-04T15:42:12.909Z,26.40
2017-07-04T15:44:41.622Z,27.20
2017-07-04T15:47:10.031Z,27.70
2017-07-04T15:49:37.853Z,27.20
2017-07-04T15:52:06.418Z,27.10
2017-07-04T15:54:34.354Z,27.50
2017-07-04T15:57:02.115Z,28.00
2017-07-04T15:59:29.951Z,27.40
2017-07-04T16:01:57.709Z,26.50
2017-07-04T16:04:25.443Z,26.80
2017-07-04T16:06:53.226Z,26.80
2017-07-04T16:09:20.997Z,27.00
2017-07-04T16:11:48.822Z,27.40
2017-07-04T16:14:17.640Z,27.00
2017-07-04T16:16:45.439Z,26.90
2017-07-04T16:19:13.241Z,27.40
2017-07-04T16:21:41.018Z,27.40
2017-07-04T16:24:08.824Z,26.90
2017-07-04T16:26:41.406Z,26.30
2017-07-04T16:29:09.358Z,26.50
2017-07-04T16:31:37.117Z,26.00
2017-07-04T16:34:04.875Z,26.70
2017-07-04T16:36:32.662Z,26.90
2017-07-04T16:39:01.626Z,26.80
2017-07-04T16:41:30.462Z,26.80
2017-07-04T16:43:58.221Z,27.30
2017-07-04T16:46:25.977Z,27.90
2017-07-04T16:48:53.809Z,28.30
2017-07-04T16:51:22.362Z,27.60
2017-07-04T16:53:50.176Z,28.00
2017-07-04T16:56:19.366Z,28.50
2017-07-04T16:58:47.902Z,28.60
2017-07-04T17:01:15.690Z,28.60
2017-07-04T17:03:43.453Z,28.20
2017-07-04T17:06:11.254Z,28.90
2017-07-04T17:08:39.484Z,29.20
2017-07-04T17:11:07.332Z,29.20
2017-07-04T17:13:35.124Z,29.10
2017-07-04T17:16:02.904Z,28.90
2017-07-04T17:18:30.726Z,28.60
2017-07-04T17:20:58.520Z,28.60
2017-07-04T17:23:27.899Z,28.60
2017-07-04T17:25:57.200Z,28.70
2017-07-04T17:28:25.956Z,28.90
2017-07-04T17:30:56.369Z,29.40
2017-07-04T17:33:24.122Z,29.40
2017-07-04T17:35:51.906Z,29.80
2017-07-04T17:38:20.594Z,29.80
2017-07-04T17:40:48.342Z,29.90
2017-07-04T17:43:16.447Z,29.60
2017-07-04T17:45:44.985Z,29.60
2017-07-04T17:48:12.786Z,29.60
2017-07-04T17:50:41.399Z,30.00
2017-07-04T17:53:11.086Z,30.70
2017-07-04T17:55:39.004Z,30.50
2017-07-04T17:58:06.795Z,30.90
2017-07-04T18:00:34.604Z,31.40
2017-07-04T18:03:02.469Z,30.90
2017-07-04T18:05:31.140Z,31.60
2017-07-04T18:07:58.962Z,31.10
2017-07-04T18:10:27.473Z,30.70
2017-07-04T18:12:55.254Z,30.50
2017-07-04T18:15:23.051Z,31.30
2017-07-04T18:17:50.806Z,31.40
2017-07-04T18:20:19.630Z,31.90
2017-07-04T18:22:49.328Z,32.80
2017-07-04T18:25:18.068Z,32.00
2017-07-04T18:27:45.869Z,32.00
2017-07-04T18:30:13.743Z,32.80
2017-07-04T18:32:41.846Z,32.80
2017-07-04T18:35:09.641Z,33.50
2017-07-04T18:37:37.399Z,33.70
2017-07-04T18:40:05.329Z,34.90
2017-07-04T18:42:38.464Z,34.50
2017-07-04T18:45:07.241Z,34.80
2017-07-04T18:47:36.789Z,34.80
2017-07-04T18:50:10.453Z,34.70
2017-07-04T18:52:38.299Z,35.10
2017-07-04T18:55:06.247Z,35.40
2017-07-04T18:57:34.017Z,35.50
2017-07-04T19:00:03.251Z,36.30
2017-07-04T19:02:31.121Z,36.60
2017-07-04T19:05:02.362Z,38.50
2017-07-04T19:07:30.134Z,37.80
2017-07-04T19:09:59.621Z,38.40
2017-07-04T19:12:28.332Z,38.40
2017-07-04T19:14:56.157Z,38.40
2017-07-04T19:17:26.178Z,38.80
2017-07-04T19:19:56.413Z,39.20
2017-07-04T19:22:26.819Z,39.50
2017-07-04T19:24:57.242Z,39.50
2017-07-04T19:27:25.128Z,40.10
2017-07-04T19:29:53.995Z,39.70
2017-07-04T19:32:23.022Z,40.50
2017-07-04T19:34:52.229Z,40.50
2017-07-04T19:37:20.093Z,41.10
2017-07-04T19:39:47.925Z,41.90
2017-07-04T19:42:16.593Z,43.40
2017-07-04T19:44:44.406Z,43.40
2017-07-04T19:47:12.482Z,43.70
2017-07-04T19:49:42.918Z,43.30
2017-07-04T19:52:11.238Z,43.30
2017-07-04T19:54:39.778Z,43.30
2017-07-04T19:57:07.602Z,43.30
2017-07-04T19:59:35.405Z,43.90
2017-07-04T20:02:04.527Z,44.60
2017-07-04T20:04:33.303Z,44.90
2017-07-04T20:07:01.141Z,45.00
2017-07-04T20:09:29.802Z,44.70
2017-07-04T20:11:57.845Z,44.20
2017-07-04T20:14:27.150Z,44.40
2017-07-04T20:16:55.119Z,44.90
2017-07-04T20:19:23.470Z,45.50
2017-07-04T20:21:58.576Z,46.00
2017-07-04T20:24:28.349Z,46.10
2017-07-04T20:26:56.312Z,46.10
2017-07-04T20:29:24.789Z,46.10
2017-07-04T20:31:52.557Z,46.50
2017-07-04T20:34:22.978Z,46.30
2017-07-04T20:36:51.411Z,46.70
2017-07-04T20:39:19.761Z,45.30
2017-07-04T20:41:48.820Z,46.00
2017-07-04T20:44:16.592Z,46.00
2017-07-04T20:46:44.538Z,46.40
2017-07-04T20:49:12.816Z,46.90
2017-07-04T20:51:41.662Z,45.90
2017-07-04T20:54:10.291Z,46.60
2017-07-04T20:56:39.417Z,47.10
2017-07-04T20:59:07.317Z,46.80
2017-07-04T21:01:37.487Z,46.90
2017-07-04T21:04:05.247Z,46.60
2017-07-04T21:06:34.289Z,46.60
2017-07-04T21:09:02.625Z,47.00
2017-07-04T21:11:30.917Z,47.60
2017-07-04T21:14:00.422Z,48.10
2017-07-04T21:16:30.216Z,48.10
2017-07-04T21:18:58.736Z,48.60
2017-07-04T21:21:26.544Z,49.00
2017-07-04T21:23:54.361Z,48.90
2017-07-04T21:26:24.777Z,48.60
2017-07-04T21:28:53.679Z,48.30
2017-07-04T21:31:23.245Z,49.50
2017-07-04T21:33:51.917Z,49.50
2017-07-04T21:36:23.270Z,48.60
2017-07-04T21:38:52.701Z,49.10
2017-07-04T21:41:21.380Z,49.10
2017-07-04T21:43:50.760Z,51.20
2017-07-04T21:46:18.634Z,51.10
2017-07-04T21:48:47.195Z,52.50
2017-07-04T21:51:15.850Z,52.40
2017-07-04T21:53:44.246Z,53.10
2017-07-04T21:56:12.022Z,53.00
2017-07-04T21:58:39.791Z,55.40
2017-07-04T22:01:08.689Z,55.50
2017-07-04T22:03:37.867Z,55.50
2017-07-04T22:06:05.755Z,55.90
2017-07-04T22:08:35.139Z,56.30
2017-07-04T22:11:03.665Z,58.00
2017-07-04T22:13:31.464Z,58.10
2017-07-04T22:15:59.215Z,59.10
2017-07-04T22:18:27.035Z,59.20
2017-07-04T22:20:54.808Z,60.20
2017-07-04T22:23:23.454Z,60.20
2017-07-04T22:25:51.586Z,61.60
2017-07-04T22:28:19.881Z,62.10
2017-07-04T22:30:49.262Z,62.10
2017-07-04T22:33:17.965Z,63.40
2017-07-04T22:35:47.061Z,66.40
2017-07-04T22:38:14.860Z,64.20
2017-07-04T22:40:43.116Z,65.10
2017-07-04T22:43:11.711Z,69.50
2017-07-04T22:45:39.497Z,69.50
2017-07-04T22:48:07.273Z,70.10
2017-07-04T22:50:35.066Z,70.80
2017-07-04T22:53:02.909Z,70.20
2017-07-04T22:55:30.744Z,71.10
2017-07-04T22:57:59.426Z,72.60
2017-07-04T23:00:27.687Z,70.50
2017-07-04T23:02:55.487Z,70.40
2017-07-04T23:05:24.196Z,71.90
2017-07-04T23:07:52.543Z,70.30
2017-07-04T23:10:20.301Z,73.10
2017-07-04T23:12:48.053Z,73.60
2017-07-04T23:15:17.179Z,73.50
2017-07-04T23:17:45.780Z,74.10
2017-07-04T23:20:15.367Z,77.30
2017-07-04T23:22:43.906Z,77.30
2017-07-04T23:25:11.684Z,75.10
2017-07-04T23:27:39.465Z,75.50
2017-07-04T23:30:07.259Z,77.40
2017-07-04T23:32:36.561Z,76.30
2017-07-04T23:35:05.906Z,76.20
2017-07-04T23:37:34.381Z,75.60
2017-07-04T23:40:02.247Z,76.50
2017-07-04T23:42:30.006Z,78.10
2017-07-04T23:44:57.892Z,78.10
2017-07-04T23:47:26.590Z,81.20
2017-07-04T23:49:55.277Z,83.90
2017-07-04T23:52:23.143Z,84.40
2017-07-04T23:54:52.551Z,85.80
2017-07-04T23:57:21.147Z,86.60
2017-07-04T23:59:49.937Z,86.50
